Time;durP1;ratioP1;P1;durP2;ratioP2;P2;SDS_P1;SDS_P2;PMS_P1;PMS_P2;Temp;Humidity;BMP_temperature;BMP_pressure;BME280_temperature;BME280_humidity;BME280_pressure;Samples;Min_cycle;Max_cycle;Signal;HPM_P1;HPM_P2
2021/11/08 00:01:39;;;;;;;33.03;20.97;;;;;;;;;;5051193;28;20644;-84
2021/11/08 00:04:07;;;;;;;34.53;22.63;;;;;;;;;;5051351;28;20194;-84
2021/11/08 00:06:35;;;;;;;132.17;82.37;;;;;;;;;;5050767;28;20276;-84
2021/11/08 00:09:02;;;;;;;51.23;34.50;;;;;;;;;;5033144;28;20580;-84
2021/11/08 00:11:30;;;;;;;57.53;37.10;;;;;;;;;;5051255;28;20196;-84
2021/11/08 00:13:58;;;;;;;55.30;33.10;;;;;;;;;;5050890;28;20364;-84
2021/11/08 00:16:31;;;;;;;38.90;24.50;;;;;;;;;;5052953;28;20242;-84
2021/11/08 00:21:45;;;;;;;29.10;16.77;;;;;;;;;;5045265;28;20698;-83
2021/11/08 00:24:13;;;;;;;24.77;15.80;;;;;;;;;;5055294;28;20303;-84
2021/11/08 00:26:42;;;;;;;25.03;16.77;;;;;;;;;;5055178;28;20196;-84
2021/11/08 00:29:10;;;;;;;33.80;19.97;;;;;;;;;;5055235;28;20246;-83
2021/11/08 00:31:37;;;;;;;27.53;17.57;;;;;;;;;;5054751;28;20257;-84
2021/11/08 00:34:05;;;;;;;26.23;15.70;;;;;;;;;;5055148;28;20287;-84
2021/11/08 00:36:33;;;;;;;30.33;15.27;;;;;;;;;;5054869;28;20312;-84
2021/11/08 00:39:00;;;;;;;19.30;12.20;;;;;;;;;;5054526;28;20206;-84
2021/11/08 00:41:28;;;;;;;17.70;11.60;;;;;;;;;;5054880;28;20262;-83
2021/11/08 00:43:55;;;;;;;21.27;14.60;;;;;;;;;;5054365;28;20210;-84
2021/11/08 00:46:23;;;;;;;22.23;13.00;;;;;;;;;;5055088;28;20245;-84
2021/11/08 00:48:50;;;;;;;20.57;13.83;;;;;;;;;;5054679;28;20279;-84
2021/11/08 00:51:19;;;;;;;20.67;14.30;;;;;;;;;;5054286;28;20572;-84
2021/11/08 00:53:47;;;;;;;37.57;15.03;;;;;;;;;;5054240;28;20211;-84
2021/11/08 00:56:17;;;;;;;24.47;13.60;;;;;;;;;;5054866;28;20222;-84
2021/11/08 00:58:45;;;;;;;38.93;14.03;;;;;;;;;;5054248;28;20207;-83
2021/11/08 01:01:19;;;;;;;21.03;11.80;;;;;;;;;;5054002;28;20202;-84
2021/11/08 01:03:47;;;;;;;30.03;12.90;;;;;;;;;;5052595;28;20689;-83
2021/11/08 01:06:15;;;;;;;31.37;11.30;;;;;;;;;;5054225;28;20203;-83
2021/11/08 01:08:44;;;;;;;14.43;10.97;;;;;;;;;;5057317;28;20223;-84
2021/11/08 01:11:14;;;;;;;47.97;13.10;;;;;;;;;;5054155;28;20642;-83
2021/11/08 01:13:42;;;;;;;39.10;13.40;;;;;;;;;;5054754;28;20214;-84
2021/11/08 01:16:09;;;;;;;26.83;12.17;;;;;;;;;;5053858;28;20287;-84
2021/11/08 01:18:36;;;;;;;19.83;12.10;;;;;;;;;;5053679;28;20933;-84
2021/11/08 01:21:06;;;;;;;26.87;12.37;;;;;;;;;;5053633;28;20190;-84
2021/11/08 01:23:34;;;;;;;16.30;12.10;;;;;;;;;;5053786;28;20225;-84
2021/11/08 01:26:06;;;;;;;15.53;11.70;;;;;;;;;;5053824;28;20807;-84
2021/11/08 01:28:36;;;;;;;16.87;11.73;;;;;;;;;;5053954;28;20975;-84
2021/11/08 01:31:04;;;;;;;19.17;12.33;;;;;;;;;;5053782;28;20211;-84
2021/11/08 01:33:32;;;;;;;19.23;13.17;;;;;;;;;;5053730;28;20569;-84
2021/11/08 01:36:11;;;;;;;17.27;12.53;;;;;;;;;;5053837;28;20222;-84
2021/11/08 01:38:42;;;;;;;19.90;13.10;;;;;;;;;;5053820;28;20204;-84
2021/11/08 01:41:10;;;;;;;24.50;14.83;;;;;;;;;;5053686;28;20254;-84
2021/11/08 01:43:38;;;;;;;19.20;13.33;;;;;;;;;;5052733;28;20747;-84
2021/11/08 01:46:05;;;;;;;22.57;15.73;;;;;;;;;;5053655;28;20698;-84
2021/11/08 01:48:33;;;;;;;16.20;13.10;;;;;;;;;;5052403;28;20286;-84
2021/11/08 01:51:01;;;;;;;17.70;12.37;;;;;;;;;;5053383;28;20273;-84
2021/11/08 01:53:28;;;;;;;19.30;11.93;;;;;;;;;;5053378;28;20227;-83
2021/11/08 01:55:56;;;;;;;19.77;13.53;;;;;;;;;;5035681;28;20221;-84
2021/11/08 01:58:26;;;;;;;19.57;13.03;;;;;;;;;;5053365;28;20282;-83
2021/11/08 02:00:53;;;;;;;17.10;12.90;;;;;;;;;;5053917;28;20230;-86
2021/11/08 02:03:21;;;;;;;15.17;11.30;;;;;;;;;;5053400;28;20195;-85
2021/11/08 02:05:49;;;;;;;15.87;11.77;;;;;;;;;;5053403;28;20236;-84
2021/11/08 02:08:17;;;;;;;16.53;12.23;;;;;;;;;;5053512;28;20290;-84
2021/11/08 02:10:46;;;;;;;14.00;12.00;;;;;;;;;;5052807;28;20198;-84
2021/11/08 02:13:14;;;;;;;16.03;12.10;;;;;;;;;;5052791;28;20235;-84
2021/11/08 02:15:42;;;;;;;18.17;13.60;;;;;;;;;;5051962;28;20720;-84
2021/11/08 02:18:12;;;;;;;16.97;13.50;;;;;;;;;;5053371;28;20237;-83
2021/11/08 02:20:43;;;;;;;15.60;11.43;;;;;;;;;;5052414;28;20744;-83
2021/11/08 02:23:11;;;;;;;14.37;10.40;;;;;;;;;;5052598;28;20291;-84
2021/11/08 02:25:39;;;;;;;16.30;10.10;;;;;;;;;;5052577;28;20257;-84
2021/11/08 02:28:07;;;;;;;12.37;10.13;;;;;;;;;;5052930;28;20206;-84
2021/11/08 02:30:37;;;;;;;14.47;9.77;;;;;;;;;;5035370;28;20231;-84
2021/11/08 02:33:07;;;;;;;13.80;10.33;;;;;;;;;;5035627;28;20211;-84
2021/11/08 02:35:35;;;;;;;16.77;10.80;;;;;;;;;;5053032;28;20210;-85
2021/11/08 02:38:04;;;;;;;13.97;10.57;;;;;;;;;;5051717;28;20214;-85
2021/11/08 02:40:31;;;;;;;14.27;10.87;;;;;;;;;;5051921;28;20194;-85
2021/11/08 02:43:01;;;;;;;15.93;11.20;;;;;;;;;;5052731;28;20245;-84
2021/11/08 02:45:29;;;;;;;17.17;10.53;;;;;;;;;;5052683;28;20246;-85
2021/11/08 02:47:57;;;;;;;12.97;9.80;;;;;;;;;;5051740;28;20203;-85
2021/11/08 02:50:27;;;;;;;13.40;9.50;;;;;;;;;;5053049;28;20202;-85
2021/11/08 02:52:55;;;;;;;12.80;9.47;;;;;;;;;;5053176;28;20234;-85
2021/11/08 02:55:26;;;;;;;13.80;9.40;;;;;;;;;;5052962;28;20271;-85
2021/11/08 02:57:54;;;;;;;12.27;9.37;;;;;;;;;;5051772;28;20254;-84
2021/11/08 03:00:22;;;;;;;13.20;9.83;;;;;;;;;;5034676;28;20199;-85
2021/11/08 03:02:50;;;;;;;12.60;9.70;;;;;;;;;;5052196;28;20268;-84
2021/11/08 03:05:20;;;;;;;15.10;10.37;;;;;;;;;;5051781;28;20286;-85
2021/11/08 03:07:47;;;;;;;17.13;10.37;;;;;;;;;;5052391;28;20230;-85
2021/11/08 03:10:16;;;;;;;12.07;9.70;;;;;;;;;;5052542;28;20715;-85
2021/11/08 03:12:46;;;;;;;14.43;9.53;;;;;;;;;;5052084;28;20227;-85
2021/11/08 03:15:16;;;;;;;12.50;9.20;;;;;;;;;;5051170;28;20262;-84
2021/11/08 03:17:46;;;;;;;11.50;9.37;;;;;;;;;;5051993;28;20232;-85
2021/11/08 03:20:15;;;;;;;14.07;9.47;;;;;;;;;;5051451;28;20673;-84
2021/11/08 03:22:48;;;;;;;13.07;9.90;;;;;;;;;;5034721;28;20260;-85
2021/11/08 03:25:22;;;;;;;13.30;9.60;;;;;;;;;;5051953;28;20964;-84
2021/11/08 03:27:51;;;;;;;14.30;10.40;;;;;;;;;;5051745;28;20696;-85
2021/11/08 03:30:21;;;;;;;15.30;9.67;;;;;;;;;;5050359;28;20195;-85
2021/11/08 03:32:49;;;;;;;11.93;9.73;;;;;;;;;;5050769;28;20649;-84
2021/11/08 03:35:19;;;;;;;14.30;10.07;;;;;;;;;;5051622;28;20194;-84
2021/11/08 03:37:46;;;;;;;11.03;8.70;;;;;;;;;;5051825;28;20223;-85
2021/11/08 03:40:15;;;;;;;11.20;8.70;;;;;;;;;;5051619;28;20633;-85
2021/11/08 03:42:42;;;;;;;10.67;9.20;;;;;;;;;;5051829;28;20571;-85
2021/11/08 03:45:12;;;;;;;14.60;9.30;;;;;;;;;;5051559;28;20206;-85
2021/11/08 03:47:39;;;;;;;13.27;9.37;;;;;;;;;;5051953;28;20211;-84
2021/11/08 03:50:08;;;;;;;13.60;9.60;;;;;;;;;;5050317;28;20249;-84
2021/11/08 03:52:36;;;;;;;17.20;10.07;;;;;;;;;;5051133;28;20299;-85
2021/11/08 03:55:03;;;;;;;15.57;9.87;;;;;;;;;;5051865;28;20226;-84
2021/11/08 03:57:30;;;;;;;13.13;9.27;;;;;;;;;;5051660;28;20258;-84
2021/11/08 03:59:57;;;;;;;15.27;9.93;;;;;;;;;;5050928;28;20659;-84
2021/11/08 04:02:26;;;;;;;16.13;10.73;;;;;;;;;;5051356;28;20230;-84
2021/11/08 04:04:55;;;;;;;14.30;10.37;;;;;;;;;;5051428;28;20226;-84
2021/11/08 04:07:23;;;;;;;16.10;10.00;;;;;;;;;;5051198;28;20291;-84
2021/11/08 04:09:50;;;;;;;15.07;9.73;;;;;;;;;;5051174;28;20202;-85
2021/11/08 04:12:18;;;;;;;12.90;9.33;;;;;;;;;;5050860;28;20238;-84
2021/11/08 04:14:46;;;;;;;18.23;10.00;;;;;;;;;;5051067;28;20246;-84
2021/11/08 04:17:14;;;;;;;13.23;9.60;;;;;;;;;;5051397;28;20215;-84
2021/11/08 04:19:43;;;;;;;14.73;9.67;;;;;;;;;;5033603;28;20200;-84
2021/11/08 04:22:10;;;;;;;12.17;9.43;;;;;;;;;;5051980;28;20202;-84
2021/11/08 04:24:38;;;;;;;14.33;9.20;;;;;;;;;;5050588;28;20735;-84
2021/11/08 04:27:06;;;;;;;12.87;9.17;;;;;;;;;;5050854;28;20229;-84
2021/11/08 04:29:33;;;;;;;14.17;8.73;;;;;;;;;;5051402;28;20192;-85
2021/11/08 04:32:00;;;;;;;13.30;9.30;;;;;;;;;;5051470;28;20227;-84
2021/11/08 04:34:30;;;;;;;13.27;9.10;;;;;;;;;;5051450;28;20231;-85
2021/11/08 04:40:02;;;;;;;15.90;9.43;;;;;;;;;;5045521;28;20207;-84
2021/11/08 04:42:33;;;;;;;13.03;9.40;;;;;;;;;;5050354;28;20228;-85
2021/11/08 04:45:32;;;;;;;14.33;9.13;;;;;;;;;;5050730;28;20205;-84
2021/11/08 04:48:13;;;;;;;12.83;9.80;;;;;;;;;;5038577;28;20310;-84
2021/11/08 04:50:47;;;;;;;13.83;9.30;;;;;;;;;;5050434;28;20199;-84
2021/11/08 04:53:32;;;;;;;13.63;9.40;;;;;;;;;;5050861;28;20222;-84
2021/11/08 05:23:59;;;;;;;13.23;10.10;;;;;;;;;;5054543;28;20306;-85
2021/11/08 05:31:53;;;;;;;15.63;9.90;;;;;;;;;;5052954;28;20203;-85
2021/11/08 05:34:21;;;;;;;17.37;12.40;;;;;;;;;;5054264;28;20283;-83
2021/11/08 05:36:48;;;;;;;26.80;19.20;;;;;;;;;;5053645;28;20251;-84
2021/11/08 05:39:15;;;;;;;18.30;12.40;;;;;;;;;;5053469;28;20296;-85
2021/11/08 05:41:45;;;;;;;16.60;11.20;;;;;;;;;;5053032;28;20219;-84
2021/11/08 05:44:16;;;;;;;16.07;11.30;;;;;;;;;;5053328;28;20210;-84
2021/11/08 05:46:43;;;;;;;11.93;9.57;;;;;;;;;;5053755;28;20694;-84
2021/11/08 05:49:11;;;;;;;13.53;10.57;;;;;;;;;;5053600;28;20231;-84
2021/11/08 05:51:38;;;;;;;14.83;9.83;;;;;;;;;;5053715;28;20205;-84
2021/11/08 05:54:06;;;;;;;14.20;10.37;;;;;;;;;;5035937;28;20224;-83
2021/11/08 05:56:41;;;;;;;13.27;10.40;;;;;;;;;;5052845;28;20239;-83
2021/11/08 05:59:22;;;;;;;16.17;10.53;;;;;;;;;;5052999;28;20710;-84
2021/11/08 06:49:23;;;;;;;15.40;9.97;;;;;;;;;;4990336;28;20776;-80
2021/11/08 06:51:51;;;;;;;16.27;10.47;;;;;;;;;;4990208;28;20234;-79
2021/11/08 06:54:19;;;;;;;15.07;10.23;;;;;;;;;;4990477;28;20765;-79
2021/11/08 06:56:50;;;;;;;16.63;10.27;;;;;;;;;;4990265;28;20206;-79
2021/11/08 06:59:19;;;;;;;15.53;10.67;;;;;;;;;;4990336;28;20226;-79
2021/11/08 07:01:48;;;;;;;16.20;11.20;;;;;;;;;;5039637;28;20205;-79
2021/11/08 07:04:16;;;;;;;17.03;11.00;;;;;;;;;;5051816;28;20289;-79
2021/11/08 07:06:44;;;;;;;15.20;10.53;;;;;;;;;;5052216;28;20200;-78
2021/11/08 07:09:11;;;;;;;14.23;10.70;;;;;;;;;;5051920;28;20255;-80
2021/11/08 07:11:39;;;;;;;15.23;10.43;;;;;;;;;;5052253;28;20202;-80
2021/11/08 07:14:07;;;;;;;19.63;11.00;;;;;;;;;;5051677;28;20597;-80
2021/11/08 07:16:34;;;;;;;15.23;10.67;;;;;;;;;;5051833;28;20709;-80
2021/11/08 07:19:01;;;;;;;15.63;11.10;;;;;;;;;;5051492;28;20308;-80
2021/11/08 07:21:30;;;;;;;15.70;10.70;;;;;;;;;;5051624;28;20243;-79
2021/11/08 07:23:57;;;;;;;14.67;11.50;;;;;;;;;;5051892;28;20228;-80
2021/11/08 07:26:24;;;;;;;17.27;10.57;;;;;;;;;;5051547;28;20292;-80
2021/11/08 07:28:52;;;;;;;17.83;11.40;;;;;;;;;;5051989;28;20220;-80
2021/11/08 07:31:19;;;;;;;18.17;11.53;;;;;;;;;;5051842;28;20236;-80
2021/11/08 07:33:46;;;;;;;13.73;10.87;;;;;;;;;;5051528;28;20731;-80
2021/11/08 07:36:13;;;;;;;16.27;11.53;;;;;;;;;;5050821;28;20289;-79
2021/11/08 07:38:42;;;;;;;26.60;16.77;;;;;;;;;;5051632;28;20256;-79
2021/11/08 07:41:11;;;;;;;18.53;11.97;;;;;;;;;;5051452;28;20469;-80
2021/11/08 07:43:38;;;;;;;16.43;10.63;;;;;;;;;;5051893;28;20208;-80
2021/11/08 07:46:06;;;;;;;15.53;11.83;;;;;;;;;;5051502;28;20294;-80
2021/11/08 07:48:33;;;;;;;17.80;13.20;;;;;;;;;;5051732;28;20289;-80
2021/11/08 07:51:00;;;;;;;15.03;12.43;;;;;;;;;;5051156;28;20557;-79
2021/11/08 07:53:28;;;;;;;15.33;11.77;;;;;;;;;;5051774;28;20210;-80
2021/11/08 07:55:56;;;;;;;13.07;10.13;;;;;;;;;;5051400;28;20746;-80
2021/11/08 07:58:23;;;;;;;15.60;10.50;;;;;;;;;;5051411;28;20266;-80
2021/11/08 08:00:51;;;;;;;13.60;9.20;;;;;;;;;;5051339;28;20286;-80
2021/11/08 08:03:21;;;;;;;13.20;9.03;;;;;;;;;;5051241;28;20288;-80
2021/11/08 08:05:48;;;;;;;12.17;8.40;;;;;;;;;;5050938;28;20209;-80
2021/11/08 08:08:15;;;;;;;9.00;7.40;;;;;;;;;;5050923;28;20201;-80
2021/11/08 08:10:42;;;;;;;10.80;7.70;;;;;;;;;;5051567;28;20204;-80
2021/11/08 08:13:11;;;;;;;12.93;7.43;;;;;;;;;;5050591;28;20410;-80
2021/11/08 08:15:38;;;;;;;12.70;8.30;;;;;;;;;;5051591;28;20297;-79
2021/11/08 08:18:05;;;;;;;13.97;7.60;;;;;;;;;;5034150;28;20311;-80
2021/11/08 08:20:34;;;;;;;16.60;7.83;;;;;;;;;;5051178;28;20249;-80
2021/11/08 08:23:01;;;;;;;12.97;7.30;;;;;;;;;;5051786;28;20696;-80
2021/11/08 08:25:28;;;;;;;10.23;8.03;;;;;;;;;;5051603;28;20306;-80
2021/11/08 08:27:58;;;;;;;13.43;8.00;;;;;;;;;;5051826;28;20378;-80
2021/11/08 08:30:27;;;;;;;12.50;8.27;;;;;;;;;;5051409;28;20230;-80
2021/11/08 08:32:54;;;;;;;14.87;8.80;;;;;;;;;;5052087;28;20265;-80
2021/11/08 08:35:22;;;;;;;11.33;8.20;;;;;;;;;;5051061;28;20287;-80
2021/11/08 08:37:49;;;;;;;13.03;10.77;;;;;;;;;;5053743;28;20654;-79
2021/11/08 08:40:17;;;;;;;13.53;8.87;;;;;;;;;;5055550;28;20307;-80
2021/11/08 08:42:44;;;;;;;13.40;9.43;;;;;;;;;;5055427;28;20261;-79
2021/11/08 08:45:12;;;;;;;13.00;9.07;;;;;;;;;;5055052;28;20293;-80
2021/11/08 08:47:41;;;;;;;18.57;10.37;;;;;;;;;;5054716;28;20199;-80
2021/11/08 08:50:08;;;;;;;21.60;13.13;;;;;;;;;;5054824;28;20253;-80
2021/11/08 08:52:36;;;;;;;18.47;13.27;;;;;;;;;;5054672;28;20294;-80
2021/11/08 08:55:03;;;;;;;16.17;10.90;;;;;;;;;;5055067;28;20295;-80
2021/11/08 08:57:30;;;;;;;22.00;12.27;;;;;;;;;;5054524;28;20287;-80
2021/11/08 08:59:58;;;;;;;15.73;11.60;;;;;;;;;;5054938;28;20231;-80
2021/11/08 09:02:25;;;;;;;17.73;13.97;;;;;;;;;;5054269;28;20734;-80
2021/11/08 09:04:53;;;;;;;19.27;10.73;;;;;;;;;;5054032;28;20652;-80
2021/11/08 09:07:21;;;;;;;16.77;11.33;;;;;;;;;;5054378;28;20298;-80
2021/11/08 09:09:48;;;;;;;19.97;13.50;;;;;;;;;;5054648;28;20287;-80
2021/11/08 09:12:15;;;;;;;14.07;11.00;;;;;;;;;;5054264;28;20698;-80
2021/11/08 09:14:42;;;;;;;19.40;11.30;;;;;;;;;;5053903;28;20271;-80
2021/11/08 09:17:10;;;;;;;19.23;11.13;;;;;;;;;;5054167;28;20742;-80
2021/11/08 09:19:37;;;;;;;19.03;11.67;;;;;;;;;;5054136;28;20643;-81
2021/11/08 09:22:08;;;;;;;21.90;13.03;;;;;;;;;;5054640;28;20223;-81
2021/11/08 09:24:35;;;;;;;17.87;12.03;;;;;;;;;;5054144;28;20245;-80
2021/11/08 09:27:02;;;;;;;19.80;11.30;;;;;;;;;;5054290;28;20227;-80
2021/11/08 09:29:30;;;;;;;20.13;10.10;;;;;;;;;;5053867;28;20680;-80
2021/11/08 09:31:57;;;;;;;14.93;7.20;;;;;;;;;;5053778;28;20235;-81
2021/11/08 09:34:24;;;;;;;19.17;6.60;;;;;;;;;;5054098;28;20250;-81
2021/11/08 09:36:54;;;;;;;14.30;6.23;;;;;;;;;;5054132;28;20232;-80
2021/11/08 09:39:27;;;;;;;13.63;5.83;;;;;;;;;;5053651;28;20409;-80
2021/11/08 09:41:58;;;;;;;15.33;4.67;;;;;;;;;;5053503;28;20238;-80
2021/11/08 09:44:25;;;;;;;13.37;4.50;;;;;;;;;;5053497;28;20265;-80
2021/11/08 09:46:54;;;;;;;11.27;4.17;;;;;;;;;;5053444;28;20286;-81
2021/11/08 09:49:22;;;;;;;11.87;3.97;;;;;;;;;;5053689;28;20624;-80
2021/11/08 09:51:50;;;;;;;10.43;4.90;;;;;;;;;;5053248;28;20231;-81
2021/11/08 09:54:18;;;;;;;11.50;4.70;;;;;;;;;;5053202;28;20286;-81
2021/11/08 09:56:50;;;;;;;14.97;5.17;;;;;;;;;;5053725;28;20287;-81
2021/11/08 09:59:17;;;;;;;11.35;4.80;;;;;;;;;;5054017;28;20310;-81
2021/11/08 10:01:45;;;;;;;14.00;4.97;;;;;;;;;;5052773;28;20196;-81
2021/11/08 10:04:12;;;;;;;14.45;5.25;;;;;;;;;;5053468;28;20291;-80
2021/11/08 10:06:40;;;;;;;11.00;4.72;;;;;;;;;;5053000;28;20196;-81
2021/11/08 10:09:09;;;;;;;13.48;4.90;;;;;;;;;;5053454;28;20278;-81
2021/11/08 10:11:37;;;;;;;12.40;4.45;;;;;;;;;;5053547;28;20247;-81
2021/11/08 10:14:07;;;;;;;12.10;5.03;;;;;;;;;;5053081;28;20729;-80
2021/11/08 10:16:35;;;;;;;11.27;4.43;;;;;;;;;;5052785;28;20322;-81
2021/11/08 10:19:04;;;;;;;10.23;4.13;;;;;;;;;;5052996;28;20258;-81
2021/11/08 10:21:32;;;;;;;11.88;4.22;;;;;;;;;;5052691;28;20242;-81
2021/11/08 10:24:01;;;;;;;9.73;3.80;;;;;;;;;;5052728;28;20775;-81
2021/11/08 10:26:29;;;;;;;10.15;4.35;;;;;;;;;;5053223;28;20306;-81
2021/11/08 10:28:58;;;;;;;10.38;4.05;;;;;;;;;;5052842;28;20204;-81
2021/11/08 10:31:29;;;;;;;11.48;4.28;;;;;;;;;;5052329;28;20718;-81
2021/11/08 10:33:57;;;;;;;10.85;3.35;;;;;;;;;;5052728;28;20200;-81
2021/11/08 10:36:24;;;;;;;12.77;3.25;;;;;;;;;;5052888;28;20202;-81
2021/11/08 10:38:54;;;;;;;10.70;3.15;;;;;;;;;;5052352;28;20314;-80
2021/11/08 10:41:22;;;;;;;11.15;2.72;;;;;;;;;;5053001;28;20230;-81
2021/11/08 10:43:51;;;;;;;10.18;2.95;;;;;;;;;;5052350;28;20235;-81
2021/11/08 10:46:20;;;;;;;10.65;3.00;;;;;;;;;;5052179;28;20279;-81
2021/11/08 10:48:50;;;;;;;13.10;2.88;;;;;;;;;;5052132;28;20690;-81
2021/11/08 10:51:18;;;;;;;10.23;2.78;;;;;;;;;;5052291;28;20290;-81
2021/11/08 10:53:46;;;;;;;9.07;2.42;;;;;;;;;;5052348;28;20227;-81
2021/11/08 10:56:14;;;;;;;7.80;2.30;;;;;;;;;;5051930;28;20709;-81
2021/11/08 10:58:46;;;;;;;9.57;2.78;;;;;;;;;;5052378;28;20219;-81
2021/11/08 11:01:20;;;;;;;14.13;3.20;;;;;;;;;;5051733;28;20817;-81
2021/11/08 11:03:51;;;;;;;8.88;2.70;;;16.00;99.90;;;;;;5052230;28;20211;-80
2021/11/08 11:06:19;;;;;;;9.82;2.28;;;16.40;99.90;;;;;;5052821;28;20644;-80
2021/11/08 11:08:51;;;;;;;8.25;2.13;;;17.00;99.90;;;;;;5052367;28;20223;-80
2021/11/08 11:11:23;;;;;;;11.98;2.70;;;16.60;99.90;;;;;;5051679;28;20250;-81
2021/11/08 11:13:52;;;;;;;11.60;2.30;;;16.50;99.90;;;;;;5052046;28;20223;-81
2021/11/08 11:16:34;;;;;;;8.70;1.88;;;16.70;99.90;;;;;;5052138;28;20266;-80
2021/11/08 11:19:06;;;;;;;12.90;2.10;;;16.80;99.90;;;;;;5035061;28;20314;-81
2021/11/08 11:21:33;;;;;;;5.93;1.70;;;15.60;99.90;;;;;;5052179;28;20230;-80
2021/11/08 11:24:05;;;;;;;7.00;1.83;;;15.40;99.90;;;;;;5051923;28;20337;-80
2021/11/08 11:26:36;;;;;;;11.30;1.98;;;15.50;99.90;;;;;;5051801;28;20208;-80
2021/11/08 11:29:05;;;;;;;8.03;2.20;;;15.20;99.90;;;;;;5050966;28;20282;-80
2021/11/08 11:31:37;;;;;;;7.63;2.10;;;15.00;99.90;;;;;;5041026;28;20206;-81
2021/11/08 11:34:15;;;;;;;9.20;1.60;;;15.30;99.90;;;;;;5051585;28;20254;-80
2021/11/08 11:36:43;;;;;;;10.02;2.13;;;16.20;99.90;;;;;;5051829;28;20738;-80
2021/11/08 11:39:13;;;;;;;9.93;2.13;;;16.10;99.90;;;;;;5033045;28;20766;-80
2021/11/08 11:41:42;;;;;;;8.07;2.03;;;16.20;99.90;;;;;;5051739;28;20301;-81
2021/11/08 11:44:10;;;;;;;9.63;1.87;;;16.30;99.90;;;;;;5051125;28;20566;-80
2021/11/08 11:46:39;;;;;;;8.75;2.22;;;15.60;99.90;;;;;;5051890;28;20303;-80
2021/11/08 11:49:07;;;;;;;9.95;2.25;;;15.60;99.90;;;;;;5051258;28;20697;-80
2021/11/08 11:51:38;;;;;;;12.07;2.40;;;16.60;99.90;;;;;;5051589;28;20294;-81
2021/11/08 11:54:07;;;;;;;8.25;2.10;;;17.40;99.90;;;;;;5051801;28;20223;-80
2021/11/08 11:56:36;;;;;;;7.72;2.33;;;15.90;99.90;;;;;;5051460;28;20296;-80
2021/11/08 11:59:05;;;;;;;11.57;2.35;;;15.40;99.90;;;;;;5044843;28;20255;-81
2021/11/08 12:01:34;;;;;;;7.87;2.13;;;14.80;99.90;;;;;;5051349;28;20243;-81
2021/11/08 12:04:02;;;;;;;11.77;2.50;;;14.50;99.90;;;;;;5051839;28;20199;-81
2021/11/08 12:06:37;;;;;;;9.50;2.30;;;14.70;99.90;;;;;;5034043;28;20200;-80
2021/11/08 12:09:07;;;;;;;9.23;2.30;;;15.60;99.90;;;;;;5051343;28;20290;-80
2021/11/08 12:11:39;;;;;;;7.13;1.70;;;16.70;99.90;;;;;;5051740;28;20231;-80
2021/11/08 12:14:12;;;;;;;9.50;2.05;;;17.60;99.90;;;;;;5055688;28;20251;-80
2021/11/08 12:16:50;;;;;;;11.35;2.35;;;17.20;99.90;;;;;;5055238;28;20231;-80
2021/11/08 12:19:20;;;;;;;7.85;2.05;;;15.90;99.90;;;;;;5054489;28;20812;-80
2021/11/08 12:21:49;;;;;;;8.80;2.28;;;16.20;99.90;;;;;;5055342;28;20226;-80
2021/11/08 12:24:19;;;;;;;8.85;2.13;;;17.80;99.90;;;;;;5055094;28;20235;-80
2021/11/08 12:26:47;;;;;;;11.52;2.53;;;19.00;88.70;;;;;;5055265;28;20282;-80
2021/11/08 12:29:18;;;;;;;10.52;2.13;;;18.00;92.80;;;;;;5054809;28;20754;-81
2021/11/08 12:31:46;;;;;;;9.13;2.05;;;17.90;98.60;;;;;;5055137;28;20631;-81
2021/11/08 12:34:17;;;;;;;11.73;2.38;;;17.50;98.20;;;;;;5055209;28;20236;-81
2021/11/08 12:36:57;;;;;;;9.77;2.20;;;17.30;99.80;;;;;;5054990;28;20227;-80
2021/11/08 12:39:24;;;;;;;10.27;2.00;;;17.40;99.90;;;;;;5054466;28;20609;-80
2021/11/08 12:41:56;;;;;;;11.07;2.35;;;17.90;99.90;;;;;;5054586;28;20211;-80
2021/11/08 12:44:24;;;;;;;11.52;2.28;;;18.10;99.90;;;;;;5054880;28;20294;-81
2021/11/08 12:46:56;;;;;;;10.77;2.50;;;18.50;93.80;;;;;;5054466;28;20915;-81
2021/11/08 12:49:28;;;;;;;10.32;2.55;;;18.00;93.80;;;;;;5055001;28;20196;-80
2021/11/08 12:51:59;;;;;;;15.75;2.25;;;17.50;98.80;;;;;;5054804;28;20751;-80
2021/11/08 12:54:28;;;;;;;9.98;2.25;;;16.90;99.90;;;;;;5054540;28;20195;-81
2021/11/08 12:57:06;;;;;;;10.75;2.50;;;15.60;99.90;;;;;;5054359;28;20238;-80
2021/11/08 12:59:42;;;;;;;9.48;2.35;;;14.90;99.90;;;;;;5054281;28;20417;-80
2021/11/08 13:02:20;;;;;;;9.77;1.95;;;14.90;99.90;;;;;;5054173;28;20750;-80
2021/11/08 13:04:48;;;;;;;9.88;2.75;;;14.80;99.90;;;;;;5054738;28;20294;-81
2021/11/08 13:07:19;;;;;;;10.00;2.40;;;15.10;99.90;;;;;;5054794;28;20286;-81
2021/11/08 13:09:48;;;;;;;10.20;2.35;;;16.30;99.90;;;;;;5053778;28;20245;-80
2021/11/08 13:12:17;;;;;;;9.63;2.50;;;16.60;99.90;;;;;;5054838;28;20288;-80
2021/11/08 13:14:48;;;;;;;9.52;2.05;;;17.90;99.90;;;;;;5053431;28;20794;-80
2021/11/08 13:17:19;;;;;;;11.13;2.70;;;18.40;94.20;;;;;;5036456;28;20272;-81
2021/11/08 13:19:49;;;;;;;10.27;2.30;;;18.50;89.20;;;;;;5053154;28;20227;-81
2021/11/08 13:22:23;;;;;;;9.25;2.60;;;18.00;96.40;;;;;;5053037;28;20742;-80
2021/11/08 13:25:04;;;;;;;9.88;2.45;;;16.60;99.90;;;;;;5052058;28;20195;-81
2021/11/08 13:27:31;;;;;;;15.98;3.38;;;16.20;99.90;;;;;;5052316;28;20686;-80
2021/11/08 13:30:00;;;;;;;14.05;2.60;;;15.50;99.90;;;;;;5052713;28;20227;-80
2021/11/08 13:32:29;;;;;;;10.82;2.78;;;15.20;99.90;;;;;;5052950;28;20291;-80
2021/11/08 13:34:57;;;;;;;11.33;2.70;;;15.20;99.90;;;;;;5052332;28;20226;-80
2021/11/08 13:37:36;;;;;;;14.13;3.03;;;14.70;99.90;;;;;;5052796;28;20295;-80
2021/11/08 13:40:17;;;;;;;15.37;2.80;;;14.90;99.90;;;;;;5052455;28;20306;-80
2021/11/08 13:42:44;;;;;;;9.30;2.30;;;14.60;99.90;;;;;;5052435;28;20337;-80
2021/11/08 13:45:11;;;;;;;8.43;2.27;;;14.30;99.90;;;;;;5052683;28;20223;-80
2021/11/08 13:47:39;;;;;;;11.13;2.50;;;14.40;99.90;;;;;;5052832;28;20282;-80
2021/11/08 13:50:12;;;;;;;13.13;2.83;;;14.20;99.90;;;;;;5052856;28;20282;-80
2021/11/08 13:52:41;;;;;;;9.13;2.30;;;14.30;99.90;;;;;;5052514;28;20211;-80
2021/11/08 13:55:10;;;;;;;7.17;2.37;;;14.50;99.90;;;;;;5052457;28;20200;-80
2021/11/08 13:57:41;;;;;;;10.37;2.43;;;14.40;99.90;;;;;;5052620;28;20204;-80
2021/11/08 14:00:12;;;;;;;12.23;2.53;;;14.40;99.90;;;;;;5051968;28;20318;-80
2021/11/08 14:02:39;;;;;;;15.20;3.03;;;14.50;99.90;;;;;;5052350;28;20258;-80
2021/11/08 14:05:07;;;;;;;12.20;2.47;;;14.40;99.90;;;;;;5052627;28;20290;-80
2021/11/08 14:07:34;;;;;;;9.63;2.67;;;14.40;99.90;;;;;;5032265;28;20572;-80
2021/11/08 14:10:04;;;;;;;11.10;2.70;;;14.00;99.90;;;;;;5032391;28;20232;-80
2021/11/08 14:12:31;;;;;;;12.77;2.83;;;13.80;99.90;;;;;;5032359;28;20231;-80
2021/11/08 14:14:59;;;;;;;9.93;2.80;;;13.80;99.90;;;;;;4984967;28;1353493;-80
2021/11/08 14:17:28;;;;;;;9.97;2.97;;;13.90;99.90;;;;;;5053102;28;20628;-79
2021/11/08 14:19:57;;;;;;;9.17;2.50;;;14.10;99.90;;;;;;5052339;28;20219;-80
2021/11/08 14:22:25;;;;;;;10.37;3.17;;;14.40;99.90;;;;;;5052596;28;20295;-80
2021/11/08 14:24:56;;;;;;;12.27;2.80;;;14.70;99.90;;;;;;5052749;28;20395;-80
2021/11/08 14:27:29;;;;;;;14.83;2.83;;;14.80;99.90;;;;;;5053136;28;20211;-79
2021/11/08 14:29:57;;;;;;;13.93;3.27;;;15.70;99.90;;;;;;5052289;28;20224;-80
2021/11/08 14:32:27;;;;;;;10.67;2.63;;;15.60;99.90;;;;;;5052716;28;20218;-80
2021/11/08 14:35:02;;;;;;;12.90;2.93;;;15.50;99.90;;;;;;5051696;28;20744;-80
2021/11/08 14:37:39;;;;;;;12.67;2.73;;;15.00;99.90;;;;;;5052830;28;20200;-80
2021/11/08 14:40:14;;;;;;;9.43;2.23;;;14.80;99.90;;;;;;5032414;28;20238;-80
2021/11/08 14:42:43;;;;;;;13.13;2.70;;;14.70;99.90;;;;;;5033241;28;20222;-80
2021/11/08 14:45:18;;;;;;;12.03;2.67;;;14.40;99.90;;;;;;5032731;28;20234;-80
2021/11/08 14:47:54;;;;;;;11.43;2.80;;;14.30;99.90;;;;;;5032901;28;20254;-80
2021/11/08 14:50:26;;;;;;;10.60;2.57;;;13.90;99.90;;;;;;5044318;28;20194;-79
2021/11/08 14:52:54;;;;;;;12.60;2.80;;;13.50;99.90;;;;;;5051190;28;20208;-80
2021/11/08 14:55:25;;;;;;;14.83;2.57;;;13.40;99.90;;;;;;5043994;28;20742;-80
2021/11/08 14:57:55;;;;;;;13.53;2.90;;;13.20;99.90;;;;;;5051618;28;20228;-79
2021/11/08 15:00:24;;;;;;;11.90;2.90;;;13.20;99.90;;;;;;5050913;28;20247;-79
2021/11/08 15:02:52;;;;;;;8.80;2.60;;;13.50;99.90;;;;;;5047994;28;20346;-79
2021/11/08 15:05:20;;;;;;;20.50;3.60;;;;;;;;;;5051351;28;20281;-79
2021/11/08 15:07:49;;;;;;;8.63;2.93;;;;;;;;;;5051735;28;20286;-79
2021/11/08 15:10:17;;;;;;;11.77;3.07;;;;;;;;;;5051320;28;20283;-79
2021/11/08 15:12:45;;;;;;;11.23;3.03;;;;;;;;;;5051977;28;20631;-79
2021/11/08 15:15:16;;;;;;;12.07;2.93;;;;;;;;;;5051002;28;20318;-80
2021/11/08 15:17:44;;;;;;;11.40;2.50;;;;;;;;;;5051617;28;20283;-80
2021/11/08 15:20:14;;;;;;;12.30;2.83;;;;;;;;;;5050819;28;20695;-80
2021/11/08 15:22:42;;;;;;;11.53;2.67;;;;;;;;;;5050927;28;20279;-79
2021/11/08 15:25:18;;;;;;;10.23;2.90;;;;;;;;;;5051295;28;20286;-80
2021/11/08 15:27:45;;;;;;;10.57;2.73;;;;;;;;;;5051286;28;20691;-80
2021/11/08 15:30:16;;;;;;;13.97;3.27;;;;;;;;;;5040080;28;20235;-79